createdAt,value
2022-11-06T00:02:31.853Z,5.43
2022-11-06T00:06:57.257Z,6.20
2022-11-06T00:11:18.583Z,4.50
2022-11-06T00:15:20.904Z,5.40
2022-11-06T00:25:15.714Z,5.87
2022-11-06T00:29:17.615Z,5.40
2022-11-06T00:33:25.803Z,5.47
2022-11-06T00:37:52.650Z,4.83
2022-11-06T00:42:02.715Z,5.10
2022-11-06T00:46:53.690Z,5.70
2022-11-06T00:51:08.055Z,5.77
2022-11-06T00:55:10.896Z,5.60
2022-11-06T00:59:39.686Z,4.53
2022-11-06T01:03:45.162Z,5.40
2022-11-06T01:07:58.527Z,6.20
2022-11-06T01:12:17.414Z,5.40
2022-11-06T01:16:32.391Z,5.40
2022-11-06T01:20:34.425Z,5.37
2022-11-06T01:24:36.492Z,5.83
2022-11-06T01:28:42.813Z,5.03
2022-11-06T01:32:49.226Z,5.33
2022-11-06T01:36:51.252Z,6.00
2022-11-06T01:40:53.590Z,5.53
2022-11-06T01:45:35.149Z,5.43
2022-11-06T01:49:40.342Z,5.77
2022-11-06T01:53:42.489Z,5.83
2022-11-06T01:57:45.147Z,5.97
2022-11-06T02:01:47.315Z,6.13
2022-11-06T02:05:53.347Z,6.40
2022-11-06T02:09:56.653Z,5.97
2022-11-06T02:14:03.597Z,6.70
2022-11-06T02:18:11.701Z,7.10
2022-11-06T02:22:49.478Z,6.33
2022-11-06T02:27:12.426Z,5.70
2022-11-06T02:31:24.442Z,5.50
2022-11-06T02:36:01.439Z,5.13
2022-11-06T02:40:09.787Z,5.80
2022-11-06T02:44:20.846Z,4.83
2022-11-06T02:48:30.255Z,6.23
2022-11-06T02:52:52.384Z,4.63
2022-11-06T02:57:56.651Z,5.17
2022-11-06T03:06:36.656Z,5.23
2022-11-06T03:10:46.692Z,4.93
2022-11-06T03:14:54.570Z,4.90
2022-11-06T03:19:11.693Z,4.70
2022-11-06T03:23:23.154Z,4.77
2022-11-06T03:27:57.527Z,4.47
2022-11-06T03:32:18.826Z,4.50
2022-11-06T03:36:26.594Z,5.10
2022-11-06T03:40:32.152Z,4.57
2022-11-06T03:45:46.220Z,4.17
2022-11-06T03:50:17.154Z,3.87
2022-11-06T03:54:34.582Z,3.53
2022-11-06T03:58:39.697Z,3.97
2022-11-06T04:02:45.488Z,3.93
2022-11-06T04:07:30.411Z,4.23
2022-11-06T04:12:34.019Z,4.40
2022-11-06T04:16:42.022Z,3.53
2022-11-06T04:21:26.142Z,3.77
2022-11-06T04:26:07.107Z,3.60
2022-11-06T04:30:15.464Z,4.00
2022-11-06T04:34:40.786Z,3.83
2022-11-06T04:39:06.519Z,5.00
2022-11-06T04:43:30.618Z,3.60
2022-11-06T04:48:01.426Z,4.33
2022-11-06T04:52:07.238Z,4.20
2022-11-06T04:56:15.601Z,4.00
2022-11-06T05:00:20.871Z,4.50
2022-11-06T05:04:24.016Z,4.27
2022-11-06T05:09:05.749Z,4.50
2022-11-06T05:13:38.328Z,4.27
2022-11-06T05:18:08.277Z,5.20
2022-11-06T05:22:30.796Z,4.00
2022-11-06T05:26:58.858Z,4.20
2022-11-06T05:31:01.470Z,4.57
2022-11-06T05:35:03.416Z,3.80
2022-11-06T05:39:05.725Z,4.30
2022-11-06T05:43:07.895Z,4.40
2022-11-06T05:47:09.769Z,3.47
2022-11-06T05:51:11.728Z,4.07
2022-11-06T05:55:15.277Z,4.33
2022-11-06T05:59:17.788Z,4.30
2022-11-06T06:03:35.170Z,4.23
2022-11-06T06:07:37.421Z,4.40
2022-11-06T06:11:39.379Z,4.97
2022-11-06T06:15:42.632Z,5.03
2022-11-06T06:19:47.680Z,5.07
2022-11-06T06:23:49.773Z,5.13
2022-11-06T06:27:51.998Z,4.20
2022-11-06T06:31:57.792Z,4.23
2022-11-06T06:36:28.109Z,5.23
2022-11-06T06:40:30.437Z,4.70
2022-11-06T06:45:09.904Z,3.77
2022-11-06T06:49:15.968Z,3.77
2022-11-06T06:53:17.844Z,3.10
2022-11-06T06:57:20.926Z,3.00
2022-11-06T07:01:37.179Z,3.10
2022-11-06T07:05:40.172Z,2.67
2022-11-06T07:09:42.349Z,3.20
2022-11-06T07:13:44.369Z,3.20
2022-11-06T07:17:46.289Z,3.10
2022-11-06T07:21:56.634Z,2.70
2022-11-06T07:26:25.615Z,3.23
2022-11-06T07:30:46.974Z,3.20
2022-11-06T07:34:48.915Z,3.37
2022-11-06T07:38:50.885Z,2.73
2022-11-06T07:42:53.034Z,3.50
2022-11-06T07:47:03.500Z,3.90
2022-11-06T07:51:08.268Z,3.73
2022-11-06T07:55:15.753Z,3.87
2022-11-06T07:59:17.807Z,4.43
2022-11-06T08:03:20.466Z,4.17
2022-11-06T08:07:22.409Z,4.77
2022-11-06T08:11:24.340Z,5.67
2022-11-06T08:15:26.247Z,5.27
2022-11-06T08:19:28.165Z,5.93
2022-11-06T08:23:30.323Z,4.70
2022-11-06T08:27:33.201Z,4.13
2022-11-06T08:32:16.616Z,3.90
2022-11-06T08:36:20.701Z,4.07
2022-11-06T08:40:31.193Z,4.33
2022-11-06T08:44:58.606Z,4.93
2022-11-06T08:49:06.803Z,3.73
2022-11-06T08:53:09.076Z,4.27
2022-11-06T08:57:18.212Z,8.90
2022-11-06T09:01:20.577Z,7.50
2022-11-06T09:05:28.328Z,6.23
2022-11-06T09:10:20.210Z,4.10
2022-11-06T09:20:52.512Z,3.77
2022-11-06T09:25:20.014Z,5.17
2022-11-06T09:30:03.472Z,6.20
2022-11-06T09:34:09.950Z,5.13
2022-11-06T09:38:13.456Z,4.60
2022-11-06T09:42:56.914Z,5.43
2022-11-06T09:47:02.980Z,3.77
2022-11-06T09:52:01.382Z,3.50
2022-11-06T09:56:06.660Z,3.70
2022-11-06T10:00:13.878Z,3.80
2022-11-06T10:04:33.043Z,3.17
2022-11-06T10:08:35.809Z,2.70
2022-11-06T10:13:05.787Z,1.50
2022-11-06T10:17:26.868Z,2.20
2022-11-06T10:22:12.633Z,2.10
2022-11-06T10:26:18.527Z,1.93
2022-11-06T10:30:21.085Z,2.03
2022-11-06T10:35:00.605Z,2.53
2022-11-06T10:45:02.823Z,2.17
2022-11-06T10:50:02.605Z,1.60
2022-11-06T10:54:13.780Z,2.20
2022-11-06T10:58:46.521Z,1.40
2022-11-06T11:02:55.621Z,2.10
2022-11-06T11:06:58.112Z,2.13
2022-11-06T11:11:15.631Z,1.97
2022-11-06T11:15:22.469Z,2.47
2022-11-06T11:19:51.585Z,2.13
2022-11-06T11:24:10.515Z,1.10
2022-11-06T11:28:34.561Z,1.40
2022-11-06T11:32:58.510Z,1.20
2022-11-06T11:37:03.113Z,1.20
2022-11-06T11:46:08.236Z,1.73
2022-11-06T11:50:22.260Z,1.23
2022-11-06T11:54:53.266Z,2.10
2022-11-06T11:59:00.554Z,1.60
2022-11-06T12:03:07.522Z,1.80
2022-11-06T12:07:46.428Z,2.00
2022-11-06T12:12:39.278Z,2.30
2022-11-06T12:16:42.035Z,1.83
2022-11-06T12:20:58.072Z,1.50
2022-11-06T12:25:37.387Z,1.83
2022-11-06T12:29:52.002Z,2.07
2022-11-06T12:34:17.292Z,1.97
2022-11-06T12:38:31.747Z,2.20
2022-11-06T12:42:37.012Z,2.17
2022-11-06T12:47:04.099Z,1.77
2022-11-06T12:57:18.999Z,1.80
2022-11-06T13:01:48.850Z,1.93
2022-11-06T13:16:25.249Z,2.57
2022-11-06T13:20:38.974Z,2.90
2022-11-06T13:25:11.053Z,3.57
2022-11-06T13:29:16.100Z,2.80
2022-11-06T13:33:37.293Z,3.13
2022-11-06T13:37:43.499Z,2.07
2022-11-06T13:41:45.705Z,2.77
2022-11-06T13:46:02.315Z,2.70
2022-11-06T13:50:14.973Z,1.90
2022-11-06T13:54:19.160Z,1.73
2022-11-06T13:59:03.357Z,1.17
2022-11-06T14:03:49.596Z,1.30
2022-11-06T14:07:52.888Z,1.20
2022-11-06T14:12:00.288Z,1.97
2022-11-06T14:16:18.290Z,1.70
2022-11-06T14:20:38.040Z,2.03
2022-11-06T14:24:46.180Z,1.87
2022-11-06T14:28:48.196Z,2.57
2022-11-06T14:32:50.307Z,2.10
2022-11-06T14:36:52.343Z,2.67
2022-11-06T14:40:54.755Z,2.90
2022-11-06T14:45:19.742Z,2.10
2022-11-06T14:49:51.431Z,2.80
2022-11-06T14:53:57.515Z,3.20
2022-11-06T14:58:35.396Z,3.67
2022-11-06T15:02:38.211Z,3.37
2022-11-06T15:07:08.300Z,3.70
2022-11-06T15:11:10.447Z,3.50
2022-11-06T15:15:21.325Z,4.40
2022-11-06T15:25:34.969Z,4.40
2022-11-06T15:30:19.471Z,4.70
2022-11-06T15:34:29.526Z,5.53
2022-11-06T15:38:46.022Z,4.80
2022-11-06T15:42:48.209Z,4.43
2022-11-06T15:47:21.092Z,4.40
2022-11-06T15:51:56.282Z,4.90
2022-11-06T15:56:01.983Z,4.73
2022-11-06T16:00:16.985Z,4.43
2022-11-06T16:04:23.325Z,4.67
2022-11-06T16:09:16.360Z,5.87
2022-11-06T16:13:25.105Z,5.47
2022-11-06T16:18:04.685Z,4.70
2022-11-06T16:22:12.873Z,4.87
2022-11-06T16:26:22.224Z,4.90
2022-11-06T16:30:25.587Z,4.70
2022-11-06T16:34:47.650Z,4.60
2022-11-06T16:38:53.734Z,5.10
2022-11-06T16:43:03.593Z,4.50
2022-11-06T16:53:04.620Z,4.10
2022-11-06T16:57:11.916Z,5.73
2022-11-06T17:01:20.160Z,5.30
2022-11-06T17:05:37.475Z,6.17
2022-11-06T17:09:45.108Z,5.03
2022-11-06T17:14:16.357Z,6.70
2022-11-06T17:18:27.726Z,5.43
2022-11-06T17:22:46.548Z,5.83
2022-11-06T17:26:53.319Z,5.47
2022-11-06T17:30:55.695Z,6.10
2022-11-06T17:34:57.655Z,7.40
2022-11-06T17:38:59.969Z,6.73
2022-11-06T17:43:01.964Z,6.53
2022-11-06T17:47:22.701Z,6.33
2022-11-06T17:56:37.938Z,6.73
2022-11-06T18:00:40.216Z,8.40
2022-11-06T18:04:42.668Z,7.07
2022-11-06T18:09:08.045Z,7.30
2022-11-06T18:13:09.974Z,6.73
2022-11-06T18:17:12.318Z,8.50
2022-11-06T18:21:14.282Z,8.27
2022-11-06T18:25:29.622Z,8.17
2022-11-06T18:29:31.785Z,6.17
2022-11-06T18:33:34.797Z,5.80
2022-11-06T18:37:37.877Z,6.83
2022-11-06T18:41:39.956Z,5.77
2022-11-06T18:45:42.011Z,6.10
2022-11-06T18:49:46.062Z,7.07
2022-11-06T18:53:55.968Z,6.80
2022-11-06T18:57:58.451Z,5.63
2022-11-06T19:02:00.502Z,6.87
2022-11-06T19:06:04.161Z,5.00
2022-11-06T19:10:06.709Z,5.97
2022-11-06T19:14:08.639Z,5.90
2022-11-06T19:18:12.514Z,4.57
2022-11-06T19:22:14.861Z,4.93
2022-11-06T19:26:30.472Z,3.77
2022-11-06T19:30:46.698Z,3.20
2022-11-06T19:34:48.838Z,3.20
2022-11-06T19:38:50.984Z,2.77
2022-11-06T19:42:52.983Z,2.87
2022-11-06T19:46:55.193Z,3.17
2022-11-06T19:51:22.594Z,2.60
2022-11-06T19:55:27.439Z,3.20
2022-11-06T19:59:30.819Z,2.53
2022-11-06T20:03:32.911Z,2.97
2022-11-06T20:07:34.798Z,2.10
2022-11-06T20:11:36.706Z,2.47
2022-11-06T20:15:38.577Z,2.33
2022-11-06T20:19:40.753Z,2.17
2022-11-06T20:23:43.940Z,2.40
2022-11-06T20:27:46.007Z,2.37
2022-11-06T20:31:47.922Z,1.90
2022-11-06T20:35:49.873Z,2.50
2022-11-06T20:39:52.235Z,2.40
2022-11-06T20:43:54.621Z,2.10
2022-11-06T20:47:56.713Z,1.70
2022-11-06T20:52:15.119Z,1.87
2022-11-06T20:57:14.860Z,2.10
2022-11-06T21:02:20.515Z,2.10
2022-11-06T21:06:24.477Z,1.83
2022-11-06T21:10:26.412Z,2.20
2022-11-06T21:20:37.766Z,2.57
2022-11-06T21:24:45.850Z,2.10
2022-11-06T21:28:52.035Z,1.87
2022-11-06T21:38:40.875Z,1.80
2022-11-06T21:43:09.377Z,2.13
2022-11-06T21:47:11.276Z,2.63
2022-11-06T21:51:19.971Z,2.40
2022-11-06T21:55:53.944Z,2.40
2022-11-06T21:59:57.017Z,2.07
2022-11-06T22:04:14.224Z,2.30
2022-11-06T22:08:44.108Z,2.67
2022-11-06T22:12:46.027Z,2.87
2022-11-06T22:16:52.623Z,2.87
2022-11-06T22:21:04.506Z,2.53
2022-11-06T22:25:08.907Z,2.30
2022-11-06T22:29:12.915Z,2.10
2022-11-06T22:33:15.404Z,2.40
2022-11-06T22:37:17.726Z,1.90
2022-11-06T22:41:23.691Z,2.17
2022-11-06T22:45:25.751Z,2.07
2022-11-06T22:50:19.061Z,1.87
2022-11-06T22:54:25.739Z,1.90
2022-11-06T22:58:28.988Z,1.90
2022-11-06T23:02:56.541Z,2.50
2022-11-06T23:07:24.545Z,2.10
2022-11-06T23:11:50.339Z,1.90
2022-11-06T23:16:43.862Z,1.93
2022-11-06T23:20:46.019Z,2.30
2022-11-06T23:25:14.766Z,1.93
2022-11-06T23:29:17.799Z,2.50
2022-11-06T23:33:20.681Z,1.83
2022-11-06T23:37:44.592Z,1.70
2022-11-06T23:41:46.705Z,1.77
2022-11-06T23:45:48.753Z,1.60
2022-11-06T23:49:51.098Z,1.23
2022-11-06T23:53:53.457Z,1.07
2022-11-06T23:57:55.321Z,1.17
